sensor_id;sensor_type;location;lat;lon;timestamp;P1;durP1;ratioP1;P2;durP2;ratioP2
11931;SDS011;6025;51.368;6.788;2023-07-24T00:00:00;4.75;;;2.88;;
11931;SDS011;6025;51.368;6.788;2023-07-24T00:04:52;3.58;;;2.53;;
11931;SDS011;6025;51.368;6.788;2023-07-24T00:09:43;3.28;;;2.78;;
11931;SDS011;6025;51.368;6.788;2023-07-24T00:14:35;2.72;;;2.40;;
11931;SDS011;6025;51.368;6.788;2023-07-24T00:19:28;3.60;;;2.92;;
11931;SDS011;6025;51.368;6.788;2023-07-24T00:24:19;3.92;;;2.50;;
11931;SDS011;6025;51.368;6.788;2023-07-24T00:29:11;4.20;;;2.35;;
11931;SDS011;6025;51.368;6.788;2023-07-24T00:34:02;2.95;;;2.65;;
11931;SDS011;6025;51.368;6.788;2023-07-24T00:38:55;3.38;;;2.83;;
11931;SDS011;6025;51.368;6.788;2023-07-24T00:43:47;3.22;;;2.50;;
11931;SDS011;6025;51.368;6.788;2023-07-24T00:48:38;5.28;;;2.80;;
11931;SDS011;6025;51.368;6.788;2023-07-24T00:53:30;3.33;;;2.75;;
11931;SDS011;6025;51.368;6.788;2023-07-24T00:58:23;3.15;;;2.40;;
11931;SDS011;6025;51.368;6.788;2023-07-24T01:03:14;3.20;;;2.50;;
11931;SDS011;6025;51.368;6.788;2023-07-24T01:08:06;2.63;;;2.40;;
11931;SDS011;6025;51.368;6.788;2023-07-24T01:12:58;3.17;;;2.45;;
11931;SDS011;6025;51.368;6.788;2023-07-24T01:17:53;3.20;;;2.30;;
11931;SDS011;6025;51.368;6.788;2023-07-24T01:22:54;2.67;;;2.47;;
11931;SDS011;6025;51.368;6.788;2023-07-24T01:27:54;3.42;;;2.67;;
11931;SDS011;6025;51.368;6.788;2023-07-24T01:32:45;4.43;;;2.83;;
11931;SDS011;6025;51.368;6.788;2023-07-24T01:37:37;3.00;;;2.50;;
11931;SDS011;6025;51.368;6.788;2023-07-24T01:42:30;3.42;;;2.58;;
11931;SDS011;6025;51.368;6.788;2023-07-24T01:47:23;3.70;;;2.60;;
11931;SDS011;6025;51.368;6.788;2023-07-24T01:52:15;3.47;;;2.47;;
11931;SDS011;6025;51.368;6.788;2023-07-24T01:57:06;2.97;;;2.67;;
11931;SDS011;6025;51.368;6.788;2023-07-24T02:01:58;4.40;;;2.70;;
11931;SDS011;6025;51.368;6.788;2023-07-24T02:06:51;3.80;;;2.53;;
11931;SDS011;6025;51.368;6.788;2023-07-24T02:11:42;2.90;;;2.45;;
11931;SDS011;6025;51.368;6.788;2023-07-24T02:16:34;3.78;;;3.00;;
11931;SDS011;6025;51.368;6.788;2023-07-24T02:21:26;3.58;;;2.97;;
11931;SDS011;6025;51.368;6.788;2023-07-24T02:26:19;3.38;;;2.67;;
11931;SDS011;6025;51.368;6.788;2023-07-24T02:31:11;3.95;;;3.30;;
11931;SDS011;6025;51.368;6.788;2023-07-24T02:36:03;5.13;;;3.10;;
11931;SDS011;6025;51.368;6.788;2023-07-24T02:40:55;4.18;;;3.00;;
11931;SDS011;6025;51.368;6.788;2023-07-24T02:45:48;4.78;;;2.90;;
11931;SDS011;6025;51.368;6.788;2023-07-24T02:50:39;4.45;;;3.10;;
11931;SDS011;6025;51.368;6.788;2023-07-24T02:55:31;4.95;;;3.35;;
11931;SDS011;6025;51.368;6.788;2023-07-24T03:00:22;3.97;;;3.28;;
11931;SDS011;6025;51.368;6.788;2023-07-24T03:05:15;4.57;;;3.08;;
11931;SDS011;6025;51.368;6.788;2023-07-24T03:10:07;5.53;;;3.40;;
11931;SDS011;6025;51.368;6.788;2023-07-24T03:14:59;4.13;;;3.30;;
11931;SDS011;6025;51.368;6.788;2023-07-24T03:19:50;4.80;;;3.45;;
11931;SDS011;6025;51.368;6.788;2023-07-24T03:24:43;5.78;;;3.78;;
11931;SDS011;6025;51.368;6.788;2023-07-24T03:29:35;5.05;;;3.75;;
11931;SDS011;6025;51.368;6.788;2023-07-24T03:34:27;4.65;;;3.40;;
11931;SDS011;6025;51.368;6.788;2023-07-24T03:39:18;4.07;;;3.60;;
11931;SDS011;6025;51.368;6.788;2023-07-24T03:44:11;5.18;;;3.60;;
11931;SDS011;6025;51.368;6.788;2023-07-24T03:49:03;4.15;;;3.60;;
11931;SDS011;6025;51.368;6.788;2023-07-24T03:53:54;7.68;;;3.55;;
11931;SDS011;6025;51.368;6.788;2023-07-24T03:58:46;5.50;;;3.92;;
11931;SDS011;6025;51.368;6.788;2023-07-24T04:03:39;5.65;;;3.95;;
11931;SDS011;6025;51.368;6.788;2023-07-24T04:08:30;5.60;;;3.95;;
11931;SDS011;6025;51.368;6.788;2023-07-24T04:13:22;5.07;;;3.70;;
11931;SDS011;6025;51.368;6.788;2023-07-24T04:18:13;5.72;;;4.00;;
11931;SDS011;6025;51.368;6.788;2023-07-24T04:23:06;5.72;;;4.20;;
11931;SDS011;6025;51.368;6.788;2023-07-24T04:27:58;6.35;;;3.97;;
11931;SDS011;6025;51.368;6.788;2023-07-24T04:32:49;6.13;;;3.97;;
11931;SDS011;6025;51.368;6.788;2023-07-24T04:37:41;5.35;;;3.92;;
11931;SDS011;6025;51.368;6.788;2023-07-24T04:42:33;7.13;;;4.10;;
11931;SDS011;6025;51.368;6.788;2023-07-24T04:47:25;8.27;;;4.30;;
11931;SDS011;6025;51.368;6.788;2023-07-24T04:52:16;6.75;;;4.05;;
11931;SDS011;6025;51.368;6.788;2023-07-24T04:57:08;7.95;;;4.22;;
11931;SDS011;6025;51.368;6.788;2023-07-24T05:02:01;5.80;;;4.03;;
11931;SDS011;6025;51.368;6.788;2023-07-24T05:06:53;7.45;;;4.13;;
11931;SDS011;6025;51.368;6.788;2023-07-24T05:11:44;5.25;;;4.10;;
11931;SDS011;6025;51.368;6.788;2023-07-24T05:16:36;6.10;;;4.50;;
11931;SDS011;6025;51.368;6.788;2023-07-24T05:21:29;7.47;;;4.13;;
11931;SDS011;6025;51.368;6.788;2023-07-24T05:26:20;10.65;;;4.28;;
11931;SDS011;6025;51.368;6.788;2023-07-24T05:31:12;7.35;;;4.13;;
11931;SDS011;6025;51.368;6.788;2023-07-24T05:36:04;6.30;;;4.00;;
11931;SDS011;6025;51.368;6.788;2023-07-24T05:40:57;5.38;;;4.05;;
11931;SDS011;6025;51.368;6.788;2023-07-24T05:45:49;5.68;;;4.22;;
11931;SDS011;6025;51.368;6.788;2023-07-24T05:50:41;6.40;;;4.22;;
11931;SDS011;6025;51.368;6.788;2023-07-24T05:55:32;6.32;;;3.83;;
11931;SDS011;6025;51.368;6.788;2023-07-24T06:00:25;6.90;;;4.60;;
11931;SDS011;6025;51.368;6.788;2023-07-24T06:05:17;6.65;;;4.13;;
11931;SDS011;6025;51.368;6.788;2023-07-24T06:10:10;8.20;;;4.78;;
11931;SDS011;6025;51.368;6.788;2023-07-24T06:15:01;6.10;;;4.63;;
11931;SDS011;6025;51.368;6.788;2023-07-24T06:19:54;6.85;;;4.40;;
11931;SDS011;6025;51.368;6.788;2023-07-24T06:24:46;6.85;;;4.43;;
11931;SDS011;6025;51.368;6.788;2023-07-24T06:29:38;6.10;;;4.38;;
11931;SDS011;6025;51.368;6.788;2023-07-24T06:34:30;5.13;;;3.90;;
11931;SDS011;6025;51.368;6.788;2023-07-24T06:39:23;5.45;;;4.03;;
11931;SDS011;6025;51.368;6.788;2023-07-24T06:44:14;6.78;;;4.07;;
11931;SDS011;6025;51.368;6.788;2023-07-24T06:49:06;6.03;;;3.75;;
11931;SDS011;6025;51.368;6.788;2023-07-24T06:53:57;4.05;;;3.45;;
11931;SDS011;6025;51.368;6.788;2023-07-24T06:58:50;4.63;;;3.40;;
11931;SDS011;6025;51.368;6.788;2023-07-24T07:03:43;4.20;;;3.38;;
11931;SDS011;6025;51.368;6.788;2023-07-24T07:08:34;4.28;;;3.10;;
11931;SDS011;6025;51.368;6.788;2023-07-24T07:13:26;4.88;;;3.10;;
11931;SDS011;6025;51.368;6.788;2023-07-24T07:18:18;3.00;;;2.70;;
11931;SDS011;6025;51.368;6.788;2023-07-24T07:23:10;3.75;;;2.90;;
11931;SDS011;6025;51.368;6.788;2023-07-24T07:28:02;4.35;;;2.85;;
11931;SDS011;6025;51.368;6.788;2023-07-24T07:32:53;5.70;;;2.78;;
11931;SDS011;6025;51.368;6.788;2023-07-24T07:37:46;5.50;;;2.95;;
11931;SDS011;6025;51.368;6.788;2023-07-24T07:42:38;3.97;;;3.00;;
11931;SDS011;6025;51.368;6.788;2023-07-24T07:47:29;2.97;;;2.67;;
11931;SDS011;6025;51.368;6.788;2023-07-24T07:52:21;4.35;;;2.60;;
11931;SDS011;6025;51.368;6.788;2023-07-24T07:57:14;3.42;;;2.83;;
11931;SDS011;6025;51.368;6.788;2023-07-24T08:02:06;3.28;;;2.58;;
11931;SDS011;6025;51.368;6.788;2023-07-24T08:06:58;5.05;;;3.47;;
11931;SDS011;6025;51.368;6.788;2023-07-24T08:11:49;4.13;;;3.22;;
11931;SDS011;6025;51.368;6.788;2023-07-24T08:16:42;3.70;;;3.20;;
11931;SDS011;6025;51.368;6.788;2023-07-24T08:21:34;5.43;;;3.63;;
11931;SDS011;6025;51.368;6.788;2023-07-24T08:26:25;4.47;;;3.45;;
11931;SDS011;6025;51.368;6.788;2023-07-24T08:31:17;5.05;;;3.42;;
11931;SDS011;6025;51.368;6.788;2023-07-24T08:36:09;3.40;;;2.92;;
11931;SDS011;6025;51.368;6.788;2023-07-24T08:41:03;3.40;;;2.90;;
11931;SDS011;6025;51.368;6.788;2023-07-24T08:45:57;3.33;;;3.03;;
11931;SDS011;6025;51.368;6.788;2023-07-24T08:50:49;3.25;;;2.80;;
11931;SDS011;6025;51.368;6.788;2023-07-24T08:55:42;3.75;;;3.15;;
11931;SDS011;6025;51.368;6.788;2023-07-24T09:00:34;3.50;;;2.83;;
11931;SDS011;6025;51.368;6.788;2023-07-24T09:05:26;2.85;;;2.38;;
11931;SDS011;6025;51.368;6.788;2023-07-24T09:10:19;2.60;;;2.10;;
11931;SDS011;6025;51.368;6.788;2023-07-24T09:15:16;3.95;;;2.25;;
11931;SDS011;6025;51.368;6.788;2023-07-24T09:20:08;4.07;;;2.47;;
11931;SDS011;6025;51.368;6.788;2023-07-24T09:25:00;3.00;;;2.17;;
11931;SDS011;6025;51.368;6.788;2023-07-24T09:29:53;2.30;;;2.10;;
11931;SDS011;6025;51.368;6.788;2023-07-24T09:34:47;3.15;;;2.10;;
11931;SDS011;6025;51.368;6.788;2023-07-24T09:39:40;3.40;;;2.08;;
11931;SDS011;6025;51.368;6.788;2023-07-24T09:44:32;4.25;;;2.60;;
11931;SDS011;6025;51.368;6.788;2023-07-24T09:49:24;2.85;;;2.10;;
11931;SDS011;6025;51.368;6.788;2023-07-24T09:54:18;2.97;;;2.20;;
11931;SDS011;6025;51.368;6.788;2023-07-24T09:59:13;3.15;;;2.53;;
11931;SDS011;6025;51.368;6.788;2023-07-24T10:04:05;4.60;;;2.45;;
11931;SDS011;6025;51.368;6.788;2023-07-24T10:08:58;6.00;;;2.60;;
11931;SDS011;6025;51.368;6.788;2023-07-24T10:13:51;2.90;;;2.35;;
11931;SDS011;6025;51.368;6.788;2023-07-24T10:18:44;2.65;;;2.45;;
11931;SDS011;6025;51.368;6.788;2023-07-24T10:23:36;2.80;;;2.35;;
11931;SDS011;6025;51.368;6.788;2023-07-24T10:28:32;2.85;;;2.38;;
11931;SDS011;6025;51.368;6.788;2023-07-24T10:33:29;3.55;;;2.50;;
11931;SDS011;6025;51.368;6.788;2023-07-24T10:38:32;4.68;;;2.40;;
11931;SDS011;6025;51.368;6.788;2023-07-24T10:43:25;3.35;;;2.72;;
11931;SDS011;6025;51.368;6.788;2023-07-24T10:48:16;3.00;;;2.70;;
11931;SDS011;6025;51.368;6.788;2023-07-24T10:53:10;3.35;;;2.72;;
11931;SDS011;6025;51.368;6.788;2023-07-24T10:58:02;3.95;;;3.05;;
11931;SDS011;6025;51.368;6.788;2023-07-24T11:02:54;5.15;;;2.85;;
11931;SDS011;6025;51.368;6.788;2023-07-24T11:07:46;3.42;;;2.80;;
11931;SDS011;6025;51.368;6.788;2023-07-24T11:12:39;4.22;;;3.00;;
11931;SDS011;6025;51.368;6.788;2023-07-24T11:17:34;3.13;;;2.40;;
11931;SDS011;6025;51.368;6.788;2023-07-24T11:22:27;3.03;;;2.03;;
11931;SDS011;6025;51.368;6.788;2023-07-24T11:27:18;4.35;;;2.70;;
11931;SDS011;6025;51.368;6.788;2023-07-24T11:32:11;3.50;;;1.88;;
11931;SDS011;6025;51.368;6.788;2023-07-24T11:37:03;3.00;;;1.88;;
11931;SDS011;6025;51.368;6.788;2023-07-24T11:41:55;2.63;;;1.98;;
11931;SDS011;6025;51.368;6.788;2023-07-24T11:46:46;2.72;;;1.98;;
11931;SDS011;6025;51.368;6.788;2023-07-24T11:51:39;3.95;;;2.78;;
11931;SDS011;6025;51.368;6.788;2023-07-24T11:56:31;3.05;;;2.38;;
11931;SDS011;6025;51.368;6.788;2023-07-24T12:01:23;3.92;;;2.58;;
11931;SDS011;6025;51.368;6.788;2023-07-24T12:06:15;3.38;;;2.25;;
11931;SDS011;6025;51.368;6.788;2023-07-24T12:11:16;2.45;;;1.70;;
11931;SDS011;6025;51.368;6.788;2023-07-24T12:16:08;2.13;;;1.80;;
11931;SDS011;6025;51.368;6.788;2023-07-24T12:21:00;3.08;;;1.90;;
11931;SDS011;6025;51.368;6.788;2023-07-24T12:25:51;2.45;;;1.73;;
11931;SDS011;6025;51.368;6.788;2023-07-24T12:30:44;2.75;;;1.42;;
11931;SDS011;6025;51.368;6.788;2023-07-24T12:35:39;2.10;;;1.52;;
11931;SDS011;6025;51.368;6.788;2023-07-24T12:40:30;2.10;;;1.50;;
11931;SDS011;6025;51.368;6.788;2023-07-24T12:45:22;2.67;;;1.60;;
11931;SDS011;6025;51.368;6.788;2023-07-24T12:50:14;2.95;;;1.95;;
11931;SDS011;6025;51.368;6.788;2023-07-24T12:55:06;2.67;;;2.00;;
11931;SDS011;6025;51.368;6.788;2023-07-24T12:59:58;2.65;;;1.70;;
11931;SDS011;6025;51.368;6.788;2023-07-24T13:04:50;2.08;;;1.60;;
11931;SDS011;6025;51.368;6.788;2023-07-24T13:09:42;3.13;;;1.92;;
11931;SDS011;6025;51.368;6.788;2023-07-24T13:14:34;2.60;;;1.92;;
11931;SDS011;6025;51.368;6.788;2023-07-24T13:19:26;1.65;;;1.38;;
11931;SDS011;6025;51.368;6.788;2023-07-24T13:24:17;2.30;;;1.52;;
11931;SDS011;6025;51.368;6.788;2023-07-24T13:29:10;1.95;;;1.65;;
11931;SDS011;6025;51.368;6.788;2023-07-24T13:34:02;3.10;;;2.13;;
11931;SDS011;6025;51.368;6.788;2023-07-24T13:38:53;2.15;;;1.85;;
11931;SDS011;6025;51.368;6.788;2023-07-24T13:43:45;2.47;;;1.95;;
11931;SDS011;6025;51.368;6.788;2023-07-24T13:48:38;2.58;;;1.90;;
11931;SDS011;6025;51.368;6.788;2023-07-24T13:53:29;3.03;;;2.08;;
11931;SDS011;6025;51.368;6.788;2023-07-24T13:58:21;2.50;;;1.98;;
11931;SDS011;6025;51.368;6.788;2023-07-24T14:03:13;1.70;;;1.60;;
11931;SDS011;6025;51.368;6.788;2023-07-24T14:08:06;2.15;;;1.65;;
11931;SDS011;6025;51.368;6.788;2023-07-24T14:12:58;2.08;;;1.83;;
11931;SDS011;6025;51.368;6.788;2023-07-24T14:17:50;1.90;;;1.70;;
11931;SDS011;6025;51.368;6.788;2023-07-24T14:22:41;1.90;;;1.70;;
11931;SDS011;6025;51.368;6.788;2023-07-24T14:27:34;1.73;;;1.60;;
11931;SDS011;6025;51.368;6.788;2023-07-24T14:32:25;1.80;;;1.60;;
11931;SDS011;6025;51.368;6.788;2023-07-24T14:37:17;2.30;;;1.70;;
11931;SDS011;6025;51.368;6.788;2023-07-24T14:42:09;2.50;;;1.67;;
11931;SDS011;6025;51.368;6.788;2023-07-24T14:47:01;2.38;;;2.05;;
11931;SDS011;6025;51.368;6.788;2023-07-24T14:51:53;2.65;;;2.20;;
11931;SDS011;6025;51.368;6.788;2023-07-24T14:56:45;2.72;;;2.53;;
11931;SDS011;6025;51.368;6.788;2023-07-24T15:01:36;2.80;;;2.47;;
11931;SDS011;6025;51.368;6.788;2023-07-24T15:06:29;3.35;;;2.70;;
11931;SDS011;6025;51.368;6.788;2023-07-24T15:11:21;3.30;;;3.00;;
11931;SDS011;6025;51.368;6.788;2023-07-24T15:16:12;2.80;;;2.10;;
11931;SDS011;6025;51.368;6.788;2023-07-24T15:21:04;2.47;;;2.28;;
11931;SDS011;6025;51.368;6.788;2023-07-24T15:25:58;3.10;;;2.72;;
11931;SDS011;6025;51.368;6.788;2023-07-24T15:30:49;4.20;;;2.67;;
11931;SDS011;6025;51.368;6.788;2023-07-24T15:35:42;3.38;;;2.70;;
11931;SDS011;6025;51.368;6.788;2023-07-24T15:40:33;2.67;;;2.47;;
11931;SDS011;6025;51.368;6.788;2023-07-24T15:45:26;2.30;;;2.10;;
11931;SDS011;6025;51.368;6.788;2023-07-24T15:50:18;2.92;;;2.50;;
11931;SDS011;6025;51.368;6.788;2023-07-24T15:55:09;2.97;;;2.30;;
11931;SDS011;6025;51.368;6.788;2023-07-24T16:00:01;4.40;;;3.13;;
11931;SDS011;6025;51.368;6.788;2023-07-24T16:04:56;7.93;;;3.92;;
11931;SDS011;6025;51.368;6.788;2023-07-24T16:09:48;5.30;;;4.38;;
11931;SDS011;6025;51.368;6.788;2023-07-24T16:14:39;7.40;;;5.32;;
11931;SDS011;6025;51.368;6.788;2023-07-24T16:19:31;6.07;;;5.40;;
11931;SDS011;6025;51.368;6.788;2023-07-24T16:24:24;9.15;;;6.85;;
11931;SDS011;6025;51.368;6.788;2023-07-24T16:29:15;6.50;;;5.32;;
11931;SDS011;6025;51.368;6.788;2023-07-24T16:34:07;6.65;;;5.43;;
11931;SDS011;6025;51.368;6.788;2023-07-24T16:38:59;7.05;;;5.90;;
11931;SDS011;6025;51.368;6.788;2023-07-24T16:43:52;7.80;;;6.90;;
11931;SDS011;6025;51.368;6.788;2023-07-24T16:48:43;6.70;;;6.00;;
11931;SDS011;6025;51.368;6.788;2023-07-24T16:53:37;7.60;;;5.93;;
11931;SDS011;6025;51.368;6.788;2023-07-24T16:58:29;6.63;;;5.88;;
11931;SDS011;6025;51.368;6.788;2023-07-24T17:03:21;5.68;;;5.18;;
11931;SDS011;6025;51.368;6.788;2023-07-24T17:08:13;5.30;;;4.80;;
11931;SDS011;6025;51.368;6.788;2023-07-24T17:13:04;6.00;;;4.75;;
11931;SDS011;6025;51.368;6.788;2023-07-24T17:17:56;5.68;;;4.90;;
11931;SDS011;6025;51.368;6.788;2023-07-24T17:22:49;4.80;;;4.40;;
11931;SDS011;6025;51.368;6.788;2023-07-24T17:27:40;4.93;;;4.30;;
11931;SDS011;6025;51.368;6.788;2023-07-24T17:32:32;5.35;;;3.80;;
11931;SDS011;6025;51.368;6.788;2023-07-24T17:37:24;4.80;;;3.53;;
11931;SDS011;6025;51.368;6.788;2023-07-24T17:42:16;4.70;;;3.30;;
11931;SDS011;6025;51.368;6.788;2023-07-24T17:47:08;3.60;;;3.30;;
11931;SDS011;6025;51.368;6.788;2023-07-24T17:51:59;3.50;;;3.20;;
11931;SDS011;6025;51.368;6.788;2023-07-24T17:56:51;4.78;;;3.90;;
11931;SDS011;6025;51.368;6.788;2023-07-24T18:01:46;5.63;;;3.90;;
11931;SDS011;6025;51.368;6.788;2023-07-24T18:06:37;5.30;;;3.67;;
11931;SDS011;6025;51.368;6.788;2023-07-24T18:11:29;4.32;;;3.25;;
11931;SDS011;6025;51.368;6.788;2023-07-24T18:16:20;3.50;;;3.20;;
11931;SDS011;6025;51.368;6.788;2023-07-24T18:21:13;5.13;;;3.75;;
11931;SDS011;6025;51.368;6.788;2023-07-24T18:26:05;4.05;;;3.40;;
11931;SDS011;6025;51.368;6.788;2023-07-24T18:30:56;4.50;;;3.80;;
11931;SDS011;6025;51.368;6.788;2023-07-24T18:35:48;4.65;;;3.80;;
11931;SDS011;6025;51.368;6.788;2023-07-24T18:40:41;5.47;;;4.05;;
11931;SDS011;6025;51.368;6.788;2023-07-24T18:45:32;7.05;;;4.65;;
11931;SDS011;6025;51.368;6.788;2023-07-24T18:50:24;5.20;;;4.25;;
11931;SDS011;6025;51.368;6.788;2023-07-24T18:55:15;6.65;;;5.20;;
11931;SDS011;6025;51.368;6.788;2023-07-24T19:00:09;9.25;;;5.72;;
11931;SDS011;6025;51.368;6.788;2023-07-24T19:05:01;7.35;;;5.63;;
11931;SDS011;6025;51.368;6.788;2023-07-24T19:09:53;7.35;;;5.05;;
11931;SDS011;6025;51.368;6.788;2023-07-24T19:14:44;7.18;;;5.68;;
11931;SDS011;6025;51.368;6.788;2023-07-24T19:19:37;6.70;;;5.75;;
11931;SDS011;6025;51.368;6.788;2023-07-24T19:24:29;7.53;;;6.47;;
11931;SDS011;6025;51.368;6.788;2023-07-24T19:29:20;7.65;;;6.60;;
11931;SDS011;6025;51.368;6.788;2023-07-24T19:34:12;7.47;;;6.45;;
11931;SDS011;6025;51.368;6.788;2023-07-24T19:39:05;7.82;;;6.57;;
11931;SDS011;6025;51.368;6.788;2023-07-24T19:43:57;9.60;;;6.95;;
11931;SDS011;6025;51.368;6.788;2023-07-24T19:48:48;10.38;;;7.38;;
11931;SDS011;6025;51.368;6.788;2023-07-24T19:53:40;9.32;;;6.93;;
11931;SDS011;6025;51.368;6.788;2023-07-24T19:58:33;8.93;;;7.20;;
11931;SDS011;6025;51.368;6.788;2023-07-24T20:03:25;8.35;;;6.78;;
11931;SDS011;6025;51.368;6.788;2023-07-24T20:08:17;7.55;;;6.13;;
11931;SDS011;6025;51.368;6.788;2023-07-24T20:13:08;10.32;;;7.07;;
11931;SDS011;6025;51.368;6.788;2023-07-24T20:18:01;9.07;;;6.35;;
11931;SDS011;6025;51.368;6.788;2023-07-24T20:22:53;5.95;;;5.20;;
11931;SDS011;6025;51.368;6.788;2023-07-24T20:27:45;6.82;;;4.65;;
11931;SDS011;6025;51.368;6.788;2023-07-24T20:32:37;4.35;;;3.15;;
11931;SDS011;6025;51.368;6.788;2023-07-24T20:37:29;3.60;;;2.20;;
11931;SDS011;6025;51.368;6.788;2023-07-24T20:42:21;4.63;;;2.22;;
11931;SDS011;6025;51.368;6.788;2023-07-24T20:47:13;2.45;;;1.80;;
11931;SDS011;6025;51.368;6.788;2023-07-24T20:52:05;2.72;;;1.65;;
11931;SDS011;6025;51.368;6.788;2023-07-24T20:56:58;2.90;;;1.58;;
11931;SDS011;6025;51.368;6.788;2023-07-24T21:01:49;3.45;;;1.80;;
11931;SDS011;6025;51.368;6.788;2023-07-24T21:06:41;2.42;;;1.70;;
11931;SDS011;6025;51.368;6.788;2023-07-24T21:11:32;2.80;;;1.80;;
11931;SDS011;6025;51.368;6.788;2023-07-24T21:16:26;2.67;;;1.70;;
11931;SDS011;6025;51.368;6.788;2023-07-24T21:21:17;2.92;;;1.58;;
11931;SDS011;6025;51.368;6.788;2023-07-24T21:26:09;2.22;;;1.50;;
11931;SDS011;6025;51.368;6.788;2023-07-24T21:31:06;3.22;;;1.60;;
11931;SDS011;6025;51.368;6.788;2023-07-24T21:35:59;4.00;;;1.58;;
11931;SDS011;6025;51.368;6.788;2023-07-24T21:40:51;2.42;;;1.52;;
11931;SDS011;6025;51.368;6.788;2023-07-24T21:45:42;2.25;;;1.42;;
11931;SDS011;6025;51.368;6.788;2023-07-24T21:50:34;1.27;;;1.17;;
11931;SDS011;6025;51.368;6.788;2023-07-24T21:55:27;4.65;;;1.60;;
11931;SDS011;6025;51.368;6.788;2023-07-24T22:00:18;2.50;;;1.40;;
11931;SDS011;6025;51.368;6.788;2023-07-24T22:05:10;3.45;;;1.50;;
11931;SDS011;6025;51.368;6.788;2023-07-24T22:10:01;2.83;;;1.63;;
11931;SDS011;6025;51.368;6.788;2023-07-24T22:14:54;3.05;;;1.48;;
11931;SDS011;6025;51.368;6.788;2023-07-24T22:19:46;2.35;;;1.38;;
11931;SDS011;6025;51.368;6.788;2023-07-24T22:24:37;2.10;;;1.30;;
11931;SDS011;6025;51.368;6.788;2023-07-24T22:29:29;2.10;;;1.42;;
11931;SDS011;6025;51.368;6.788;2023-07-24T22:34:22;1.50;;;1.30;;
11931;SDS011;6025;51.368;6.788;2023-07-24T22:39:14;1.60;;;1.10;;
11931;SDS011;6025;51.368;6.788;2023-07-24T22:44:06;3.63;;;1.48;;
11931;SDS011;6025;51.368;6.788;2023-07-24T22:48:58;2.17;;;1.50;;
11931;SDS011;6025;51.368;6.788;2023-07-24T22:53:50;3.35;;;1.75;;
11931;SDS011;6025;51.368;6.788;2023-07-24T22:58:59;2.78;;;1.70;;
11931;SDS011;6025;51.368;6.788;2023-07-24T23:04:10;3.38;;;1.55;;
11931;SDS011;6025;51.368;6.788;2023-07-24T23:14:49;2.75;;;1.50;;
11931;SDS011;6025;51.368;6.788;2023-07-24T23:19:41;2.00;;;1.40;;
11931;SDS011;6025;51.368;6.788;2023-07-24T23:24:32;2.20;;;1.40;;
11931;SDS011;6025;51.368;6.788;2023-07-24T23:29:24;2.60;;;1.50;;
11931;SDS011;6025;51.368;6.788;2023-07-24T23:34:17;4.78;;;1.60;;
11931;SDS011;6025;51.368;6.788;2023-07-24T23:39:08;2.75;;;1.83;;
11931;SDS011;6025;51.368;6.788;2023-07-24T23:44:00;4.68;;;1.73;;
11931;SDS011;6025;51.368;6.788;2023-07-24T23:48:51;3.15;;;1.65;;
11931;SDS011;6025;51.368;6.788;2023-07-24T23:53:44;3.08;;;2.13;;
11931;SDS011;6025;51.368;6.788;2023-07-24T23:58:36;4.40;;;1.98;;
